createdAt,value
2022-08-14T00:02:01.448Z,6.05
2022-08-14T00:04:35.436Z,6.20
2022-08-14T00:07:11.154Z,6.00
2022-08-14T00:09:39.839Z,6.25
2022-08-14T00:12:23.619Z,5.88
2022-08-14T00:14:54.816Z,6.60
2022-08-14T00:17:23.258Z,6.57
2022-08-14T00:19:52.453Z,6.55
2022-08-14T00:22:44.658Z,6.05
2022-08-14T00:25:10.190Z,6.25
2022-08-14T00:27:38.519Z,5.25
2022-08-14T00:30:10.764Z,6.13
2022-08-14T00:32:52.079Z,6.30
2022-08-14T00:36:37.002Z,6.15
2022-08-14T00:38:13.749Z,6.00
2022-08-14T00:40:46.185Z,6.30
2022-08-14T00:43:15.302Z,6.10
2022-08-14T00:45:43.690Z,6.30
2022-08-14T00:48:34.478Z,6.00
2022-08-14T00:51:07.597Z,5.82
2022-08-14T00:53:36.518Z,6.50
2022-08-14T00:56:07.150Z,6.05
2022-08-14T00:58:44.897Z,6.43
2022-08-14T01:01:14.608Z,6.57
2022-08-14T01:03:45.315Z,6.50
2022-08-14T01:06:18.398Z,6.45
2022-08-14T01:08:51.495Z,6.55
2022-08-14T01:11:35.681Z,6.72
2022-08-14T01:14:25.823Z,5.88
2022-08-14T01:16:55.414Z,5.45
2022-08-14T01:19:41.582Z,5.80
2022-08-14T01:22:12.268Z,6.32
2022-08-14T01:24:43.595Z,5.47
2022-08-14T01:27:16.035Z,6.50
2022-08-14T01:30:03.091Z,7.30
2022-08-14T01:32:37.357Z,7.32
2022-08-14T01:35:17.851Z,6.38
2022-08-14T01:37:59.821Z,6.40
2022-08-14T01:40:33.007Z,6.15
2022-08-14T01:43:04.973Z,5.97
2022-08-14T01:45:40.859Z,6.47
2022-08-14T01:48:13.852Z,6.40
2022-08-14T01:50:44.201Z,6.20
2022-08-14T01:53:14.601Z,7.22
2022-08-14T01:55:42.430Z,7.15
2022-08-14T01:58:19.801Z,6.30
2022-08-14T02:00:54.953Z,6.80
2022-08-14T02:03:28.364Z,6.20
2022-08-14T02:05:59.869Z,6.90
2022-08-14T02:08:34.621Z,6.07
2022-08-14T02:11:22.391Z,6.27
2022-08-14T02:13:53.210Z,6.97
2022-08-14T02:16:26.408Z,7.05
2022-08-14T02:18:55.826Z,6.80
2022-08-14T02:21:23.765Z,7.32
2022-08-14T02:23:54.750Z,6.85
2022-08-14T02:26:29.565Z,6.40
2022-08-14T02:29:03.572Z,7.00
2022-08-14T02:31:42.042Z,6.32
2022-08-14T02:34:19.936Z,6.88
2022-08-14T02:37:04.285Z,6.65
2022-08-14T02:39:38.011Z,7.47
2022-08-14T02:42:13.208Z,6.07
2022-08-14T02:44:49.215Z,6.97
2022-08-14T02:47:20.627Z,6.93
2022-08-14T02:49:54.836Z,6.80
2022-08-14T02:52:56.857Z,7.32
2022-08-14T02:55:19.894Z,7.30
2022-08-14T02:57:57.885Z,7.30
2022-08-14T03:00:27.294Z,6.85
2022-08-14T03:02:58.462Z,6.63
2022-08-14T03:05:32.914Z,6.55
2022-08-14T03:08:08.825Z,6.93
2022-08-14T03:10:41.907Z,6.68
2022-08-14T03:13:20.874Z,7.35
2022-08-14T03:15:55.888Z,7.13
2022-08-14T03:18:31.112Z,7.65
2022-08-14T03:21:02.868Z,8.00
2022-08-14T03:23:34.076Z,7.57
2022-08-14T03:26:07.110Z,7.63
2022-08-14T03:28:36.681Z,8.13
2022-08-14T03:31:08.424Z,7.30
2022-08-14T03:33:41.796Z,7.97
2022-08-14T03:37:38.575Z,7.57
2022-08-14T03:39:13.606Z,8.63
2022-08-14T03:41:47.775Z,7.90
2022-08-14T03:45:26.684Z,7.35
2022-08-14T03:47:03.463Z,7.38
2022-08-14T03:49:31.294Z,7.97
2022-08-14T03:52:18.053Z,6.97
2022-08-14T03:54:53.139Z,7.68
2022-08-14T03:57:22.769Z,7.80
2022-08-14T03:59:51.656Z,8.30
2022-08-14T04:02:33.408Z,7.75
2022-08-14T04:05:11.563Z,8.27
2022-08-14T04:07:49.473Z,7.90
2022-08-14T04:10:31.630Z,7.50
2022-08-14T04:13:03.770Z,7.57
2022-08-14T04:15:40.942Z,8.27
2022-08-14T04:18:21.155Z,9.40
2022-08-14T04:20:54.288Z,8.95
2022-08-14T04:23:30.010Z,8.75
2022-08-14T04:26:04.777Z,9.05
2022-08-14T04:29:07.151Z,8.90
2022-08-14T04:33:02.075Z,8.95
2022-08-14T04:34:17.058Z,8.88
2022-08-14T04:37:07.353Z,9.02
2022-08-14T04:39:57.210Z,10.45
2022-08-14T04:42:47.533Z,9.90
2022-08-14T04:45:23.243Z,8.45
2022-08-14T04:48:10.169Z,9.00
2022-08-14T04:50:44.712Z,9.80
2022-08-14T04:53:16.272Z,10.02
2022-08-14T04:55:50.030Z,9.13
2022-08-14T04:58:32.961Z,9.30
2022-08-14T05:01:06.199Z,9.43
2022-08-14T05:03:41.028Z,9.48
2022-08-14T05:06:35.058Z,9.80
2022-08-14T05:09:00.384Z,8.50
2022-08-14T05:11:33.332Z,9.23
2022-08-14T05:14:33.993Z,9.68
2022-08-14T05:16:59.265Z,9.40
2022-08-14T05:19:30.000Z,9.02
2022-08-14T05:22:16.855Z,9.20
2022-08-14T05:24:50.333Z,9.73
2022-08-14T05:27:22.604Z,10.18
2022-08-14T05:29:53.768Z,10.80
2022-08-14T05:32:27.167Z,10.13
2022-08-14T05:34:58.112Z,10.55
2022-08-14T05:37:26.631Z,10.25
2022-08-14T05:39:54.896Z,10.18
2022-08-14T05:42:29.482Z,10.20
2022-08-14T05:45:01.981Z,10.00
2022-08-14T05:47:39.250Z,10.63
2022-08-14T05:50:19.281Z,9.13
2022-08-14T05:52:49.304Z,10.15
2022-08-14T05:55:22.640Z,9.95
2022-08-14T05:57:54.729Z,9.68
2022-08-14T06:00:34.799Z,9.75
2022-08-14T06:03:09.758Z,10.30
2022-08-14T06:05:38.827Z,10.30
2022-08-14T06:08:08.651Z,10.68
2022-08-14T06:10:50.498Z,10.05
2022-08-14T06:13:18.533Z,10.10
2022-08-14T06:15:47.492Z,9.40
2022-08-14T06:18:17.511Z,10.75
2022-08-14T06:20:45.957Z,9.30
2022-08-14T06:23:14.552Z,9.98
2022-08-14T06:25:44.683Z,10.05
2022-08-14T06:28:27.868Z,9.48
2022-08-14T06:30:56.773Z,9.63
2022-08-14T06:33:45.791Z,9.52
2022-08-14T06:36:14.695Z,9.18
2022-08-14T06:38:46.334Z,9.63
2022-08-14T06:41:20.739Z,9.35
2022-08-14T06:43:49.207Z,10.20
2022-08-14T06:46:26.551Z,9.88
2022-08-14T06:49:03.740Z,9.90
2022-08-14T06:51:44.707Z,10.25
2022-08-14T06:54:13.318Z,10.25
2022-08-14T06:56:44.432Z,10.43
2022-08-14T06:59:22.417Z,10.63
2022-08-14T07:02:13.735Z,9.93
2022-08-14T07:05:05.613Z,9.93
2022-08-14T07:07:39.221Z,9.93
2022-08-14T07:10:07.931Z,13.32
2022-08-14T07:12:54.926Z,11.32
2022-08-14T07:15:30.209Z,10.80
2022-08-14T07:18:01.276Z,9.57
2022-08-14T07:20:32.061Z,10.18
2022-08-14T07:23:07.462Z,10.25
2022-08-14T07:25:37.789Z,10.65
2022-08-14T07:28:12.974Z,10.38
2022-08-14T07:30:50.744Z,9.88
2022-08-14T07:33:24.914Z,10.23
2022-08-14T07:36:01.471Z,10.23
2022-08-14T07:38:33.942Z,9.60
2022-08-14T07:41:11.608Z,10.30
2022-08-14T07:43:43.028Z,9.75
2022-08-14T07:46:12.276Z,10.07
2022-08-14T07:48:41.529Z,10.07
2022-08-14T07:51:11.627Z,9.32
2022-08-14T07:53:40.495Z,9.38
2022-08-14T07:56:43.890Z,8.98
2022-08-14T07:58:58.766Z,9.13
2022-08-14T08:01:29.989Z,9.63
2022-08-14T08:04:00.334Z,9.60
2022-08-14T08:06:31.001Z,9.33
2022-08-14T08:09:02.861Z,9.38
2022-08-14T08:11:37.178Z,9.65
2022-08-14T08:14:10.855Z,8.93
2022-08-14T08:16:47.329Z,9.43
2022-08-14T08:19:19.223Z,9.38
2022-08-14T08:21:48.656Z,8.90
2022-08-14T08:24:19.688Z,9.02
2022-08-14T08:26:50.449Z,9.45
2022-08-14T08:29:24.966Z,9.85
2022-08-14T08:31:56.549Z,8.70
2022-08-14T08:34:30.457Z,9.43
2022-08-14T08:37:05.133Z,8.57
2022-08-14T08:40:02.376Z,8.43
2022-08-14T08:42:41.439Z,8.63
2022-08-14T08:45:17.480Z,8.40
2022-08-14T08:47:46.528Z,8.80
2022-08-14T08:50:31.716Z,9.18
2022-08-14T08:53:02.140Z,8.75
2022-08-14T08:55:34.167Z,8.60
2022-08-14T08:58:04.387Z,8.77
2022-08-14T09:00:36.165Z,8.37
2022-08-14T09:03:10.206Z,8.82
2022-08-14T09:05:57.985Z,8.70
2022-08-14T09:08:43.648Z,8.63
2022-08-14T09:11:19.486Z,8.88
2022-08-14T09:13:50.855Z,8.40
2022-08-14T09:16:21.805Z,8.98
2022-08-14T09:18:53.487Z,8.27
2022-08-14T09:21:24.128Z,9.27
2022-08-14T09:24:28.616Z,8.82
2022-08-14T09:26:44.233Z,9.15
2022-08-14T09:29:17.418Z,8.75
2022-08-14T09:31:53.182Z,8.35
2022-08-14T09:34:31.160Z,8.68
2022-08-14T09:37:35.781Z,8.57
2022-08-14T09:40:16.782Z,9.05
2022-08-14T09:43:01.546Z,8.02
2022-08-14T09:45:39.944Z,7.93
2022-08-14T09:48:27.535Z,8.40
2022-08-14T09:54:18.578Z,7.40
2022-08-14T09:56:31.024Z,7.32
2022-08-14T09:59:00.305Z,7.68
2022-08-14T10:01:40.181Z,7.07
2022-08-14T10:04:33.909Z,7.28
2022-08-14T10:07:04.478Z,8.05
2022-08-14T10:09:33.181Z,7.43
2022-08-14T10:12:18.623Z,7.38
2022-08-14T10:14:54.721Z,7.75
2022-08-14T10:17:27.514Z,7.60
2022-08-14T10:20:00.826Z,7.63
2022-08-14T10:23:15.168Z,7.30
2022-08-14T10:25:19.835Z,6.90
2022-08-14T10:28:00.059Z,6.97
2022-08-14T10:30:37.574Z,7.30
2022-08-14T10:33:07.066Z,6.70
2022-08-14T10:35:47.919Z,7.07
2022-08-14T10:38:26.779Z,7.07
2022-08-14T10:40:59.137Z,7.93
2022-08-14T10:43:31.906Z,7.10
2022-08-14T10:46:22.118Z,15.68
2022-08-14T10:48:58.351Z,7.50
2022-08-14T10:51:27.334Z,12.07
2022-08-14T10:54:01.886Z,18.75
2022-08-14T10:56:45.488Z,7.07
2022-08-14T10:59:15.367Z,7.10
2022-08-14T11:01:43.195Z,7.32
2022-08-14T11:04:25.879Z,6.90
2022-08-14T11:06:56.878Z,7.30
2022-08-14T11:09:26.447Z,14.18
2022-08-14T11:12:33.793Z,7.28
2022-08-14T11:14:59.321Z,7.28
2022-08-14T11:17:32.119Z,11.95
2022-08-14T11:20:01.761Z,9.68
2022-08-14T11:22:52.352Z,14.27
2022-08-14T11:25:21.396Z,7.18
2022-08-14T11:27:49.465Z,8.52
2022-08-14T11:30:49.922Z,10.40
2022-08-14T11:33:09.450Z,7.60
2022-08-14T11:35:47.374Z,7.15
2022-08-14T11:38:17.965Z,6.82
2022-08-14T11:40:47.053Z,7.00
2022-08-14T11:43:16.391Z,6.97
2022-08-14T11:45:48.781Z,6.50
2022-08-14T11:49:02.469Z,18.15
2022-08-14T11:51:13.845Z,9.05
2022-08-14T11:53:43.613Z,6.22
2022-08-14T11:56:13.912Z,7.55
2022-08-14T11:58:42.333Z,6.90
2022-08-14T12:01:11.621Z,6.40
2022-08-14T12:03:46.771Z,5.05
2022-08-14T12:06:29.310Z,6.43
2022-08-14T12:09:08.590Z,7.88
2022-08-14T12:11:47.424Z,6.55
2022-08-14T12:14:29.811Z,7.10
2022-08-14T12:17:02.451Z,12.20
2022-08-14T12:19:33.491Z,10.87
2022-08-14T12:22:01.593Z,10.20
2022-08-14T12:24:32.078Z,6.78
2022-08-14T12:27:05.108Z,6.95
2022-08-14T12:29:35.032Z,6.82
2022-08-14T12:32:09.026Z,6.53
2022-08-14T12:34:45.046Z,6.32
2022-08-14T12:37:13.059Z,6.43
2022-08-14T12:39:41.040Z,6.65
2022-08-14T12:42:11.925Z,5.97
2022-08-14T12:44:58.678Z,5.90
2022-08-14T12:47:31.301Z,6.68
2022-08-14T12:49:59.562Z,10.60
2022-08-14T12:52:41.755Z,7.40
2022-08-14T12:55:20.929Z,7.75
2022-08-14T12:57:53.284Z,8.05
2022-08-14T13:00:24.451Z,16.75
2022-08-14T13:02:56.531Z,9.52
2022-08-14T13:05:27.485Z,9.00
2022-08-14T13:07:57.226Z,9.33
2022-08-14T13:10:47.884Z,6.85
2022-08-14T13:13:18.112Z,7.93
2022-08-14T13:15:48.346Z,6.50
2022-08-14T13:18:27.777Z,6.20
2022-08-14T13:20:59.730Z,6.72
2022-08-14T13:23:36.485Z,7.00
2022-08-14T13:26:05.812Z,7.45
2022-08-14T13:28:41.202Z,7.18
2022-08-14T13:31:30.075Z,6.95
2022-08-14T13:34:00.189Z,6.93
2022-08-14T13:36:51.833Z,7.43
2022-08-14T13:39:17.437Z,7.30
2022-08-14T13:41:46.950Z,7.43
2022-08-14T13:44:15.317Z,6.90
2022-08-14T13:46:50.268Z,7.30
2022-08-14T13:49:20.868Z,6.75
2022-08-14T13:51:54.136Z,6.78
2022-08-14T13:54:23.064Z,6.80
2022-08-14T13:56:50.873Z,7.43
2022-08-14T13:59:20.249Z,6.82
2022-08-14T14:01:51.775Z,6.60
2022-08-14T14:04:24.420Z,6.70
2022-08-14T14:06:52.800Z,6.75
2022-08-14T14:09:32.646Z,6.75
2022-08-14T14:12:37.721Z,7.40
2022-08-14T14:15:04.776Z,7.43
2022-08-14T14:17:33.500Z,7.30
2022-08-14T14:20:04.777Z,7.45
2022-08-14T14:22:34.320Z,6.80
2022-08-14T14:25:04.072Z,6.25
2022-08-14T14:27:41.704Z,7.22
2022-08-14T14:30:24.486Z,6.68
2022-08-14T14:33:04.404Z,6.90
2022-08-14T14:35:39.755Z,6.90
2022-08-14T14:38:08.634Z,6.72
2022-08-14T14:40:54.068Z,7.07
2022-08-14T14:43:28.733Z,6.93
2022-08-14T14:45:59.998Z,6.97
2022-08-14T14:48:31.397Z,6.68
2022-08-14T14:51:02.162Z,7.10
2022-08-14T14:53:38.601Z,6.88
2022-08-14T14:56:47.200Z,7.00
2022-08-14T14:58:57.403Z,7.00
2022-08-14T15:01:26.269Z,7.70
2022-08-14T15:03:56.439Z,7.35
2022-08-14T15:06:30.547Z,7.53
2022-08-14T15:09:02.051Z,7.40
2022-08-14T15:11:33.327Z,7.57
2022-08-14T15:14:01.581Z,7.82
2022-08-14T15:16:49.969Z,7.30
2022-08-14T15:19:18.378Z,6.60
2022-08-14T15:21:47.553Z,6.90
2022-08-14T15:24:20.755Z,7.22
2022-08-14T15:26:52.319Z,6.88
2022-08-14T15:29:20.058Z,6.50
2022-08-14T15:31:48.001Z,6.45
2022-08-14T15:34:43.038Z,6.50
2022-08-14T15:37:10.869Z,6.75
2022-08-14T15:39:41.883Z,6.80
2022-08-14T15:42:16.183Z,6.95
2022-08-14T15:44:57.419Z,6.75
2022-08-14T15:47:29.281Z,6.20
2022-08-14T15:49:59.029Z,5.65
2022-08-14T15:52:34.349Z,5.78
2022-08-14T15:55:05.965Z,5.95
2022-08-14T15:57:34.497Z,6.43
2022-08-14T16:00:21.537Z,6.38
2022-08-14T16:03:15.634Z,6.20
2022-08-14T16:05:45.747Z,6.30
2022-08-14T16:08:29.376Z,6.55
2022-08-14T16:11:00.647Z,6.63
2022-08-14T16:13:41.522Z,6.80
2022-08-14T16:16:35.037Z,6.15
2022-08-14T16:19:10.219Z,6.00
2022-08-14T16:22:01.324Z,5.95
2022-08-14T16:30:12.218Z,6.03
2022-08-14T16:32:54.607Z,6.00
2022-08-14T16:35:25.099Z,6.30
2022-08-14T16:37:55.733Z,6.10
2022-08-14T16:40:24.219Z,6.13
2022-08-14T16:43:04.323Z,5.80
2022-08-14T16:45:43.690Z,6.45
2022-08-14T16:48:57.577Z,6.07
2022-08-14T16:51:01.656Z,6.80
2022-08-14T16:53:36.827Z,6.90
2022-08-14T16:56:23.796Z,6.22
2022-08-14T16:59:06.559Z,6.43
2022-08-14T17:01:36.911Z,6.28
2022-08-14T17:04:14.817Z,6.65
2022-08-14T17:06:54.975Z,6.28
2022-08-14T17:09:35.429Z,6.25
2022-08-14T17:12:08.488Z,8.93
2022-08-14T17:14:56.207Z,8.00
2022-08-14T17:17:27.739Z,6.30
2022-08-14T17:20:02.054Z,6.45
2022-08-14T17:22:48.453Z,6.25
2022-08-14T17:25:17.979Z,6.60
2022-08-14T17:28:51.569Z,6.18
2022-08-14T17:31:02.554Z,5.80
2022-08-14T17:33:33.785Z,6.38
2022-08-14T17:36:21.393Z,6.03
2022-08-14T17:39:02.728Z,6.72
2022-08-14T17:41:37.512Z,8.10
2022-08-14T17:44:33.716Z,8.35
2022-08-14T17:47:10.090Z,8.27
2022-08-14T17:49:46.229Z,7.53
2022-08-14T17:52:16.793Z,7.55
2022-08-14T17:54:52.900Z,6.90
2022-08-14T17:57:28.587Z,6.63
2022-08-14T17:59:59.013Z,7.10
2022-08-14T18:02:31.478Z,7.18
2022-08-14T18:05:03.162Z,6.57
2022-08-14T18:08:00.218Z,6.80
2022-08-14T18:10:55.398Z,6.85
2022-08-14T18:13:11.111Z,7.40
2022-08-14T18:15:43.186Z,6.85
2022-08-14T18:18:19.408Z,7.28
2022-08-14T18:21:41.814Z,7.63
2022-08-14T18:23:41.856Z,7.10
2022-08-14T18:26:37.141Z,7.68
2022-08-14T18:29:00.750Z,6.28
2022-08-14T18:31:43.510Z,8.65
2022-08-14T18:34:32.283Z,6.63
2022-08-14T18:37:14.287Z,5.50
2022-08-14T18:40:02.843Z,4.55
2022-08-14T18:42:44.299Z,4.88
2022-08-14T18:45:15.526Z,5.38
2022-08-14T18:48:14.689Z,5.10
2022-08-14T18:50:52.499Z,5.68
2022-08-14T18:53:25.178Z,5.60
2022-08-14T18:56:00.001Z,5.00
2022-08-14T18:58:49.078Z,5.70
2022-08-14T19:01:26.962Z,5.60
2022-08-14T19:04:02.194Z,5.55
2022-08-14T19:06:41.520Z,5.50
2022-08-14T19:09:44.056Z,5.47
2022-08-14T19:12:56.500Z,5.30
2022-08-14T19:15:27.242Z,6.30
2022-08-14T19:18:13.931Z,6.00
2022-08-14T19:20:52.856Z,6.22
2022-08-14T19:23:40.606Z,6.22
2022-08-14T19:26:37.047Z,5.88
2022-08-14T19:29:37.724Z,5.82
2022-08-14T19:32:39.760Z,5.93
2022-08-14T19:35:55.898Z,5.85
2022-08-14T19:38:48.023Z,5.45
2022-08-14T19:41:17.818Z,5.60
2022-08-14T19:43:55.523Z,5.57
2022-08-14T19:46:38.805Z,5.07
2022-08-14T19:49:23.234Z,5.60
2022-08-14T19:52:17.489Z,5.20
2022-08-14T19:54:50.480Z,5.55
2022-08-14T19:57:21.381Z,5.15
2022-08-14T20:00:00.512Z,5.15
2022-08-14T20:02:30.348Z,5.20
2022-08-14T20:05:00.467Z,5.15
2022-08-14T20:08:00.122Z,5.10
2022-08-14T20:11:03.251Z,5.00
2022-08-14T20:13:23.633Z,4.95
2022-08-14T20:15:52.116Z,5.45
2022-08-14T20:18:49.866Z,5.20
2022-08-14T20:21:14.908Z,5.35
2022-08-14T20:23:44.083Z,5.38
2022-08-14T20:26:31.943Z,15.65
2022-08-14T20:29:05.376Z,15.52
2022-08-14T20:31:38.553Z,14.82
2022-08-14T20:34:18.811Z,5.95
2022-08-14T20:37:04.470Z,6.70
2022-08-14T20:39:38.237Z,6.53
2022-08-14T20:42:31.958Z,6.32
2022-08-14T20:45:23.696Z,5.95
2022-08-14T20:48:00.767Z,6.20
2022-08-14T20:50:31.991Z,6.10
2022-08-14T20:53:00.822Z,5.78
2022-08-14T20:55:41.547Z,5.00
2022-08-14T20:58:43.237Z,5.70
2022-08-14T21:01:33.641Z,6.40
2022-08-14T21:04:05.099Z,6.07
2022-08-14T21:07:22.841Z,6.80
2022-08-14T21:10:05.158Z,6.10
2022-08-14T21:12:34.208Z,11.57
2022-08-14T21:15:11.151Z,6.03
2022-08-14T21:17:43.153Z,6.35
2022-08-14T21:20:25.392Z,6.20
2022-08-14T21:22:56.823Z,6.60
2022-08-14T21:25:31.927Z,5.90
2022-08-14T21:28:04.198Z,6.68
2022-08-14T21:30:46.948Z,6.82
2022-08-14T21:33:21.678Z,6.93
2022-08-14T21:35:50.056Z,6.63
2022-08-14T21:38:31.260Z,6.90
2022-08-14T21:41:41.607Z,7.05
2022-08-14T21:43:57.065Z,6.80
2022-08-14T21:46:25.446Z,6.78
2022-08-14T21:48:55.350Z,6.70
2022-08-14T21:51:53.418Z,6.65
2022-08-14T21:54:32.363Z,6.60
2022-08-14T21:57:02.235Z,7.07
2022-08-14T21:59:34.153Z,7.00
2022-08-14T22:02:05.720Z,6.57
2022-08-14T22:04:40.149Z,7.03
2022-08-14T22:07:12.129Z,6.82
2022-08-14T22:09:42.950Z,7.03
2022-08-14T22:12:58.687Z,6.88
2022-08-14T22:15:02.871Z,6.78
2022-08-14T22:28:32.851Z,6.95
2022-08-14T22:31:02.299Z,7.25
2022-08-14T22:33:30.810Z,6.95
2022-08-14T22:36:00.369Z,7.57
2022-08-14T22:38:35.536Z,7.20
2022-08-14T22:41:27.803Z,6.72
2022-08-14T22:43:59.467Z,7.13
2022-08-14T22:46:27.555Z,6.63
2022-08-14T22:48:57.573Z,7.47
2022-08-14T22:51:27.544Z,7.63
2022-08-14T22:53:56.902Z,8.02
2022-08-14T22:56:30.131Z,7.80
2022-08-14T22:59:00.115Z,7.40
2022-08-14T23:01:56.157Z,7.28
2022-08-14T23:04:34.848Z,6.72
2022-08-14T23:07:22.036Z,7.82
2022-08-14T23:09:56.914Z,8.27
2022-08-14T23:12:29.412Z,8.48
2022-08-14T23:14:59.556Z,7.50
2022-08-14T23:17:39.233Z,7.63
2022-08-14T23:20:18.855Z,8.02
2022-08-14T23:22:51.398Z,8.07
2022-08-14T23:28:33.751Z,8.23
2022-08-14T23:30:57.458Z,7.35
2022-08-14T23:33:28.726Z,8.73
2022-08-14T23:35:58.874Z,8.35
2022-08-14T23:38:30.282Z,7.72
2022-08-14T23:41:00.851Z,8.75
2022-08-14T23:43:31.771Z,8.40
2022-08-14T23:46:00.639Z,10.23
2022-08-14T23:48:29.349Z,8.13
2022-08-14T23:51:00.175Z,8.70
2022-08-14T23:53:48.791Z,8.98
2022-08-14T23:56:32.298Z,8.73
2022-08-14T23:59:02.654Z,8.50
